createdAt,value
2019-04-26T00:00:50.092Z,53.34
2019-04-26T00:06:12.402Z,43.78
2019-04-26T00:08:40.611Z,53.36
2019-04-26T00:11:27.905Z,46.29
2019-04-26T00:14:22.625Z,47.90
2019-04-26T00:16:57.913Z,42.85
2019-04-26T00:19:26.522Z,42.73
2019-04-26T00:21:54.977Z,45.70
2019-04-26T00:24:23.473Z,43.12
2019-04-26T00:26:51.759Z,42.77
2019-04-26T00:29:21.153Z,42.61
2019-04-26T00:31:49.425Z,42.99
2019-04-26T00:34:17.591Z,42.93
2019-04-26T00:36:45.992Z,42.63
2019-04-26T00:39:14.367Z,42.60
2019-04-26T00:41:42.919Z,42.96
2019-04-26T00:44:12.210Z,42.71
2019-04-26T00:46:44.319Z,43.00
2019-04-26T00:49:15.070Z,43.73
2019-04-26T00:51:43.893Z,44.95
2019-04-26T00:54:14.016Z,43.92
2019-04-26T00:56:42.477Z,43.63
2019-04-26T00:59:11.639Z,43.68
2019-04-26T01:01:43.343Z,43.82
2019-04-26T01:04:11.525Z,43.84
2019-04-26T01:06:41.658Z,43.97
2019-04-26T01:09:10.358Z,44.02
2019-04-26T01:11:38.549Z,44.15
2019-04-26T01:14:06.766Z,44.66
2019-04-26T01:16:35.086Z,44.66
2019-04-26T01:19:03.472Z,44.47
2019-04-26T01:21:38.480Z,44.55
2019-04-26T01:24:09.400Z,44.82
2019-04-26T01:26:40.387Z,44.82
2019-04-26T01:29:11.868Z,44.76
2019-04-26T01:31:49.811Z,45.08
2019-04-26T01:34:19.272Z,45.06
2019-04-26T01:36:49.330Z,45.02
2019-04-26T01:39:19.738Z,45.13
2019-04-26T01:42:06.030Z,45.74
2019-04-26T01:44:49.177Z,45.15
2019-04-26T01:47:18.196Z,45.15
2019-04-26T01:49:46.798Z,45.18
2019-04-26T01:52:16.262Z,45.62
2019-04-26T01:54:46.606Z,49.16
2019-04-26T01:57:15.193Z,45.57
2019-04-26T01:59:47.072Z,45.29
2019-04-26T02:02:37.322Z,49.28
2019-04-26T02:05:10.234Z,48.44
2019-04-26T02:07:41.928Z,46.43
2019-04-26T02:10:12.628Z,46.43
2019-04-26T02:12:44.094Z,46.43
2019-04-26T02:15:12.542Z,51.07
2019-04-26T02:17:41.934Z,47.09
2019-04-26T02:20:10.408Z,46.52
2019-04-26T02:22:56.608Z,45.90
2019-04-26T02:25:25.921Z,47.27
2019-04-26T02:27:54.134Z,45.94
2019-04-26T02:30:22.377Z,48.22
2019-04-26T02:32:50.689Z,46.86
2019-04-26T02:35:18.927Z,47.36
2019-04-26T02:37:47.389Z,60.05
2019-04-26T02:40:18.352Z,64.53
2019-04-26T02:42:47.883Z,49.14
2019-04-26T02:45:51.853Z,47.55
2019-04-26T02:48:44.113Z,47.83
2019-04-26T02:51:17.507Z,51.81
2019-04-26T02:54:25.105Z,48.01
2019-04-26T02:56:56.331Z,61.42
2019-04-26T02:59:58.817Z,61.51
2019-04-26T03:02:30.114Z,48.08
2019-04-26T03:05:01.568Z,47.97
2019-04-26T03:07:58.301Z,46.79
2019-04-26T03:10:35.921Z,46.59
2019-04-26T03:13:05.523Z,65.23
2019-04-26T03:15:49.787Z,58.18
2019-04-26T03:18:47.305Z,49.26
2019-04-26T03:21:24.610Z,46.73
2019-04-26T03:24:06.783Z,59.36
2019-04-26T03:27:04.423Z,48.18
2019-04-26T03:30:22.157Z,49.95
2019-04-26T03:33:12.498Z,49.46
2019-04-26T03:36:09.105Z,46.82
2019-04-26T03:38:49.780Z,50.77
2019-04-26T03:41:39.004Z,46.20
2019-04-26T03:44:21.384Z,48.21
2019-04-26T03:46:57.134Z,59.68
2019-04-26T03:49:59.605Z,46.48
2019-04-26T03:52:40.196Z,61.92
2019-04-26T03:55:47.787Z,48.07
2019-04-26T03:58:21.283Z,48.43
2019-04-26T04:00:54.226Z,48.92
2019-04-26T04:03:53.017Z,52.50
2019-04-26T04:06:28.020Z,66.65
2019-04-26T04:09:05.500Z,60.38
2019-04-26T04:11:46.703Z,50.87
2019-04-26T04:14:46.317Z,69.23
2019-04-26T04:17:27.734Z,68.10
2019-04-26T04:20:52.650Z,47.54
2019-04-26T04:23:52.550Z,67.25
2019-04-26T04:26:27.143Z,48.51
2019-04-26T04:29:42.718Z,68.79
2019-04-26T04:32:04.577Z,60.33
2019-04-26T04:34:41.510Z,72.04
2019-04-26T04:37:14.353Z,73.19
2019-04-26T04:40:22.678Z,68.96
2019-04-26T04:43:17.247Z,56.78
2019-04-26T04:46:32.059Z,71.85
2019-04-26T04:49:22.444Z,72.27
2019-04-26T04:52:12.017Z,73.09
2019-04-26T04:54:44.656Z,72.00
2019-04-26T04:58:00.835Z,72.53
2019-04-26T05:00:56.528Z,72.67
2019-04-26T05:03:43.934Z,67.48
2019-04-26T05:06:45.000Z,71.74
2019-04-26T05:09:21.853Z,66.09
2019-04-26T05:12:10.230Z,70.97
2019-04-26T05:15:27.557Z,71.81
2019-04-26T05:18:32.181Z,72.10
2019-04-26T05:21:30.681Z,72.01
2019-04-26T05:24:42.838Z,69.60
2019-04-26T05:28:01.005Z,68.35
2019-04-26T05:31:17.391Z,70.97
2019-04-26T05:34:29.514Z,70.12
2019-04-26T05:37:21.126Z,70.01
2019-04-26T05:40:15.384Z,68.94
2019-04-26T05:43:22.220Z,70.78
2019-04-26T05:46:42.869Z,71.35
2019-04-26T05:49:38.250Z,67.89
2019-04-26T05:56:10.456Z,69.56
2019-04-26T05:58:45.957Z,66.16
2019-04-26T06:02:14.240Z,57.22
2019-04-26T06:05:22.046Z,64.42
2019-04-26T06:09:06.616Z,68.04
2019-04-26T06:11:43.909Z,69.25
2019-04-26T06:14:48.715Z,69.24
2019-04-26T06:17:57.768Z,63.82
2019-04-26T06:20:47.615Z,65.29
2019-04-26T06:23:37.758Z,67.57
2019-04-26T06:26:35.730Z,66.91
2019-04-26T06:29:07.692Z,69.20
2019-04-26T06:31:50.237Z,67.35
2019-04-26T06:34:27.449Z,67.43
2019-04-26T06:37:29.627Z,68.05
2019-04-26T06:40:14.696Z,68.69
2019-04-26T06:43:21.556Z,54.61
2019-04-26T06:46:55.102Z,64.99
2019-04-26T06:53:22.803Z,68.43
2019-04-26T06:56:08.402Z,61.53
2019-04-26T06:59:10.584Z,58.72
2019-04-26T07:01:59.163Z,65.61
2019-04-26T07:04:59.183Z,65.99
2019-04-26T07:07:45.502Z,61.67
2019-04-26T07:10:37.413Z,58.68
2019-04-26T07:13:34.917Z,67.59
2019-04-26T07:16:26.516Z,60.70
2019-04-26T07:19:51.786Z,58.31
2019-04-26T07:22:45.430Z,68.22
2019-04-26T07:25:51.795Z,64.74
2019-04-26T07:28:47.400Z,59.77
2019-04-26T07:31:31.474Z,64.00
2019-04-26T07:34:35.992Z,63.25
2019-04-26T07:37:42.247Z,64.31
2019-04-26T07:40:48.315Z,57.61
2019-04-26T07:43:57.999Z,64.05
2019-04-26T07:47:04.207Z,64.83
2019-04-26T07:50:22.698Z,64.31
2019-04-26T07:53:17.450Z,63.79
2019-04-26T07:56:26.048Z,58.92
2019-04-26T07:59:48.933Z,63.44
2019-04-26T08:02:46.284Z,59.60
2019-04-26T08:05:27.734Z,57.61
2019-04-26T08:07:59.333Z,61.99
2019-04-26T08:10:30.703Z,63.92
2019-04-26T08:13:10.334Z,61.03
2019-04-26T08:16:02.213Z,59.33
2019-04-26T08:18:41.700Z,58.54
2019-04-26T08:21:19.991Z,62.60
2019-04-26T08:24:03.783Z,56.66
2019-04-26T08:26:35.095Z,62.13
2019-04-26T08:29:06.702Z,60.49
2019-04-26T08:31:38.101Z,61.27
2019-04-26T08:34:14.478Z,57.64
2019-04-26T08:39:44.473Z,60.13
2019-04-26T08:42:03.805Z,60.47
2019-04-26T08:44:51.421Z,62.40
2019-04-26T08:47:45.919Z,56.47
2019-04-26T08:50:22.190Z,54.23
2019-04-26T08:52:52.515Z,60.54
2019-04-26T08:55:20.403Z,60.52
2019-04-26T08:57:51.544Z,56.05
2019-04-26T09:00:39.693Z,58.75
2019-04-26T09:03:18.622Z,61.60
2019-04-26T09:06:11.401Z,62.71
2019-04-26T09:08:43.600Z,59.79
2019-04-26T09:11:25.387Z,60.84
2019-04-26T09:13:46.883Z,60.86
2019-04-26T09:16:20.800Z,58.68
2019-04-26T09:18:55.226Z,60.05
2019-04-26T09:21:29.000Z,60.54
2019-04-26T09:24:21.172Z,60.42
2019-04-26T09:26:52.942Z,56.77
2019-04-26T09:29:43.175Z,59.21
2019-04-26T09:32:14.833Z,56.96
2019-04-26T09:34:43.138Z,57.97
2019-04-26T09:37:11.489Z,57.83
2019-04-26T09:39:41.722Z,56.56
2019-04-26T09:42:17.361Z,57.66
2019-04-26T09:44:56.757Z,55.61
2019-04-26T09:47:28.148Z,51.94
2019-04-26T09:50:16.993Z,56.28
2019-04-26T09:52:49.029Z,55.89
2019-04-26T09:55:17.154Z,53.07
2019-04-26T09:57:45.514Z,55.28
2019-04-26T10:00:17.521Z,55.12
2019-04-26T10:02:45.674Z,53.58
2019-04-26T10:05:17.599Z,53.73
2019-04-26T10:07:43.852Z,52.77
2019-04-26T10:10:22.723Z,54.53
2019-04-26T10:13:04.574Z,52.47
2019-04-26T10:15:49.232Z,54.92
2019-04-26T10:18:20.398Z,55.48
2019-04-26T10:20:48.120Z,55.99
2019-04-26T10:23:16.415Z,55.10
2019-04-26T10:25:47.424Z,53.68
2019-04-26T10:28:17.040Z,52.56
2019-04-26T10:30:44.256Z,54.27
2019-04-26T10:33:12.611Z,56.14
2019-04-26T10:35:40.904Z,59.09
2019-04-26T10:38:09.122Z,56.09
2019-04-26T10:40:37.310Z,57.73
2019-04-26T10:43:06.470Z,59.35
2019-04-26T10:45:34.690Z,58.25
2019-04-26T10:48:02.898Z,57.21
2019-04-26T10:50:32.946Z,59.01
2019-04-26T10:53:25.630Z,59.56
2019-04-26T10:56:26.492Z,58.82
2019-04-26T10:59:05.995Z,60.65
2019-04-26T11:01:33.614Z,64.07
2019-04-26T11:04:01.748Z,62.38
2019-04-26T11:06:30.106Z,57.68
2019-04-26T11:08:58.315Z,60.85
2019-04-26T11:11:26.512Z,60.05
2019-04-26T11:13:57.434Z,62.50
2019-04-26T11:16:24.943Z,63.28
2019-04-26T11:18:53.103Z,61.86
2019-04-26T11:21:22.440Z,58.36
2019-04-26T11:23:50.716Z,58.83
2019-04-26T11:26:18.983Z,61.40
2019-04-26T11:28:47.235Z,65.23
2019-04-26T11:31:15.432Z,67.17
2019-04-26T11:33:45.108Z,65.97
2019-04-26T11:36:13.606Z,57.07
2019-04-26T11:38:41.741Z,64.50
2019-04-26T11:41:09.534Z,66.81
2019-04-26T11:43:37.802Z,59.66
2019-04-26T11:46:06.044Z,65.28
2019-04-26T11:48:34.344Z,59.24
2019-04-26T11:51:02.569Z,54.37
2019-04-26T11:53:33.287Z,62.85
2019-04-26T11:56:04.617Z,63.61
2019-04-26T11:58:30.712Z,64.95
2019-04-26T12:01:01.791Z,63.78
2019-04-26T12:03:30.087Z,62.13
2019-04-26T12:06:23.141Z,67.26
2019-04-26T12:08:57.404Z,67.80
2019-04-26T12:11:31.557Z,65.75
2019-04-26T12:13:59.281Z,63.52
2019-04-26T12:16:25.293Z,61.29
2019-04-26T12:18:53.515Z,69.11
2019-04-26T12:21:21.897Z,67.71
2019-04-26T12:23:51.460Z,61.93
2019-04-26T12:26:21.779Z,60.66
2019-04-26T12:28:50.014Z,56.76
2019-04-26T12:31:18.250Z,58.44
2019-04-26T12:33:46.457Z,54.64
2019-04-26T12:36:14.652Z,54.36
2019-04-26T12:38:42.773Z,70.09
2019-04-26T12:41:11.655Z,70.61
2019-04-26T12:43:40.227Z,57.64
2019-04-26T12:46:15.913Z,57.65
2019-04-26T12:48:46.037Z,56.98
2019-04-26T12:51:14.360Z,66.04
2019-04-26T12:53:42.601Z,62.59
2019-04-26T12:56:10.785Z,63.76
2019-04-26T12:58:39.143Z,56.28
2019-04-26T13:01:12.124Z,56.21
2019-04-26T13:03:38.885Z,54.06
2019-04-26T13:06:07.166Z,55.10
2019-04-26T13:08:35.375Z,56.92
2019-04-26T13:11:20.790Z,68.34
2019-04-26T13:14:01.560Z,59.77
2019-04-26T13:16:40.832Z,59.86
2019-04-26T13:19:09.060Z,63.96
2019-04-26T13:21:38.840Z,55.49
2019-04-26T13:24:07.257Z,56.05
2019-04-26T13:26:36.443Z,53.63
2019-04-26T13:29:04.827Z,53.13
2019-04-26T13:31:33.220Z,55.05
2019-04-26T13:34:02.964Z,60.62
2019-04-26T13:36:31.440Z,62.56
2019-04-26T13:38:59.643Z,56.22
2019-04-26T13:41:28.023Z,57.40
2019-04-26T13:43:57.138Z,55.24
2019-04-26T13:46:46.980Z,62.64
2019-04-26T13:49:24.977Z,55.54
2019-04-26T13:51:53.151Z,66.55
2019-04-26T13:54:22.719Z,70.06
2019-04-26T13:56:50.986Z,56.00
2019-04-26T13:59:19.190Z,58.65
2019-04-26T14:01:47.690Z,68.12
2019-04-26T14:04:15.987Z,68.54
2019-04-26T14:06:44.302Z,56.83
2019-04-26T14:09:13.886Z,68.21
2019-04-26T14:11:42.207Z,54.74
2019-04-26T14:14:10.456Z,55.75
2019-04-26T14:16:38.719Z,62.53
2019-04-26T14:19:14.734Z,56.20
2019-04-26T14:21:36.925Z,54.31
2019-04-26T14:24:23.962Z,58.29
2019-04-26T14:26:56.711Z,55.80
2019-04-26T14:29:28.508Z,60.90
2019-04-26T14:31:54.968Z,57.35
2019-04-26T14:34:23.139Z,55.50
2019-04-26T14:36:51.389Z,55.66
2019-04-26T14:39:28.019Z,65.02
2019-04-26T14:41:52.774Z,62.21
2019-04-26T14:44:18.940Z,64.76
2019-04-26T14:46:48.846Z,59.52
2019-04-26T14:49:19.252Z,57.22
2019-04-26T14:51:51.195Z,57.29
2019-04-26T14:54:17.241Z,66.55
2019-04-26T14:56:52.044Z,57.05
2019-04-26T14:59:17.134Z,68.08
2019-04-26T15:02:06.374Z,70.77
2019-04-26T15:04:43.408Z,75.91
2019-04-26T15:07:12.168Z,66.02
2019-04-26T15:09:40.499Z,69.09
2019-04-26T15:12:14.105Z,61.92
2019-04-26T15:14:38.667Z,72.68
2019-04-26T15:17:06.945Z,73.18
2019-04-26T15:19:35.314Z,71.99
2019-04-26T15:22:09.847Z,74.89
2019-04-26T15:24:35.031Z,72.95
2019-04-26T15:27:03.475Z,75.51
2019-04-26T15:29:32.311Z,60.71
2019-04-26T15:32:00.690Z,60.88
2019-04-26T15:34:29.047Z,61.00
2019-04-26T15:36:57.241Z,65.32
2019-04-26T15:39:34.174Z,68.90
2019-04-26T15:42:23.786Z,60.03
2019-04-26T15:45:01.773Z,69.95
2019-04-26T15:47:48.133Z,59.65
2019-04-26T15:50:32.986Z,61.19
2019-04-26T15:53:02.511Z,57.25
2019-04-26T15:55:33.884Z,69.08
2019-04-26T15:58:02.671Z,67.94
2019-04-26T16:00:32.783Z,62.64
2019-04-26T16:03:03.768Z,59.56
2019-04-26T16:05:31.268Z,62.00
2019-04-26T16:08:03.241Z,57.89
2019-04-26T16:10:34.633Z,56.29
2019-04-26T16:13:15.726Z,56.13
2019-04-26T16:15:32.242Z,54.98
2019-04-26T16:18:02.405Z,54.55
2019-04-26T16:20:31.709Z,54.23
2019-04-26T16:23:06.198Z,56.44
2019-04-26T16:25:34.298Z,54.57
2019-04-26T16:28:18.361Z,55.19
2019-04-26T16:30:56.037Z,55.11
2019-04-26T16:33:28.496Z,55.61
2019-04-26T16:36:02.696Z,55.61
2019-04-26T16:38:33.068Z,68.38
2019-04-26T16:41:03.266Z,56.42
2019-04-26T16:46:02.351Z,55.18
2019-04-26T16:48:30.752Z,54.95
2019-04-26T16:51:00.876Z,55.50
2019-04-26T16:53:43.566Z,64.23
2019-04-26T16:55:59.092Z,56.61
2019-04-26T16:58:30.925Z,69.44
2019-04-26T17:00:58.165Z,56.60
2019-04-26T17:03:26.711Z,55.48
2019-04-26T17:06:04.921Z,55.37
2019-04-26T17:08:25.145Z,56.52
2019-04-26T17:09:37.223Z,59.35
2019-04-26T17:10:56.652Z,57.78
2019-04-26T17:13:29.840Z,57.82
2019-04-26T17:15:58.117Z,59.38
2019-04-26T17:18:26.907Z,59.38
2019-04-26T17:20:53.759Z,68.63
2019-04-26T17:23:44.209Z,59.20
2019-04-26T17:26:34.484Z,70.55
2019-04-26T17:29:02.373Z,59.09
2019-04-26T17:31:30.756Z,58.97
2019-04-26T17:33:59.059Z,69.56
2019-04-26T17:36:27.389Z,60.78
2019-04-26T17:38:55.666Z,65.40
2019-04-26T17:41:24.132Z,59.45
2019-04-26T17:44:05.945Z,62.86
2019-04-26T17:46:22.431Z,60.22
2019-04-26T17:48:51.215Z,59.67
2019-04-26T17:51:22.965Z,59.38
2019-04-26T17:53:58.816Z,58.40
2019-04-26T17:56:21.519Z,58.56
2019-04-26T17:58:54.266Z,58.22
2019-04-26T18:01:39.983Z,57.97
2019-04-26T18:03:54.352Z,57.88
2019-04-26T18:06:29.469Z,58.11
2019-04-26T18:08:54.570Z,57.71
2019-04-26T18:11:24.745Z,58.72
2019-04-26T18:13:51.185Z,59.13
2019-04-26T18:16:22.361Z,58.94
2019-04-26T18:19:07.647Z,58.00
2019-04-26T18:21:44.398Z,58.04
2019-04-26T18:24:13.223Z,59.51
2019-04-26T18:26:41.719Z,59.65
2019-04-26T18:29:09.965Z,65.45
2019-04-26T18:31:39.246Z,58.12
2019-04-26T18:34:07.756Z,58.11
2019-04-26T18:36:36.045Z,58.63
2019-04-26T18:39:06.216Z,58.53
2019-04-26T18:41:34.502Z,59.28
2019-04-26T18:44:03.082Z,57.95
2019-04-26T18:46:40.624Z,57.79
2019-04-26T18:49:11.355Z,57.77
2019-04-26T18:51:43.399Z,57.30
2019-04-26T18:54:26.669Z,57.64
2019-04-26T18:56:57.676Z,57.86
2019-04-26T18:59:27.805Z,57.12
2019-04-26T19:01:55.954Z,56.66
2019-04-26T19:04:24.411Z,64.26
2019-04-26T19:06:53.034Z,69.04
2019-04-26T19:09:24.957Z,65.01
2019-04-26T19:11:56.019Z,75.18
2019-04-26T19:14:50.383Z,77.46
2019-04-26T19:17:37.496Z,73.39
2019-04-26T19:20:25.803Z,59.94
2019-04-26T19:22:59.123Z,57.84
2019-04-26T19:25:30.002Z,58.60
2019-04-26T19:28:06.627Z,70.35
2019-04-26T19:30:29.832Z,58.17
2019-04-26T19:32:58.045Z,57.51
2019-04-26T19:35:26.458Z,57.12
2019-04-26T19:37:54.644Z,56.68
2019-04-26T19:40:22.989Z,56.64
2019-04-26T19:42:57.026Z,56.60
2019-04-26T19:45:58.351Z,57.25
2019-04-26T19:48:55.321Z,57.43
2019-04-26T19:51:41.493Z,57.26
2019-04-26T19:54:32.254Z,57.19
2019-04-26T19:57:05.496Z,56.88
2019-04-26T19:59:34.663Z,57.02
2019-04-26T20:02:02.943Z,59.55
2019-04-26T20:04:33.983Z,57.14
2019-04-26T20:07:01.398Z,56.67
2019-04-26T20:09:29.793Z,73.47
2019-04-26T20:11:59.318Z,77.20
2019-04-26T20:14:43.450Z,78.01
2019-04-26T20:16:57.251Z,69.31
2019-04-26T20:19:34.423Z,76.67
2019-04-26T20:21:55.482Z,64.08
2019-04-26T20:24:23.753Z,63.32
2019-04-26T20:26:52.365Z,70.01
2019-04-26T20:29:21.453Z,59.08
2019-04-26T20:32:16.711Z,71.74
2019-04-26T20:34:53.065Z,58.75
2019-04-26T20:37:25.613Z,57.58
2019-04-26T20:39:55.783Z,56.68
2019-04-26T20:42:22.363Z,56.36
2019-04-26T20:44:53.157Z,56.28
2019-04-26T20:47:21.704Z,56.12
2019-04-26T20:49:59.956Z,56.03
2019-04-26T20:52:21.355Z,56.32
2019-04-26T20:54:51.176Z,56.03
2019-04-26T20:57:21.633Z,55.63
2019-04-26T20:59:52.644Z,56.38
2019-04-26T21:02:20.694Z,55.72
2019-04-26T21:04:51.470Z,55.90
2019-04-26T21:07:19.858Z,56.83
2019-04-26T21:09:48.059Z,55.67
2019-04-26T21:12:18.452Z,61.90
2019-04-26T21:14:46.341Z,74.11
2019-04-26T21:17:14.535Z,59.03
2019-04-26T21:19:42.813Z,56.66
2019-04-26T21:22:11.229Z,55.92
2019-04-26T21:24:41.690Z,56.14
2019-04-26T21:27:35.495Z,55.97
2019-04-26T21:30:14.397Z,55.63
2019-04-26T21:33:03.036Z,68.50
2019-04-26T21:35:37.882Z,73.60
2019-04-26T21:38:10.290Z,58.67
2019-04-26T21:40:49.301Z,58.82
2019-04-26T21:43:17.516Z,72.75
2019-04-26T21:45:45.704Z,74.38
2019-04-26T21:48:14.573Z,59.53
2019-04-26T21:50:44.371Z,58.96
2019-04-26T21:53:13.742Z,56.53
2019-04-26T21:55:43.391Z,56.14
2019-04-26T21:58:11.615Z,55.93
2019-04-26T22:01:06.752Z,55.81
2019-04-26T22:03:34.975Z,56.51
2019-04-26T22:06:04.137Z,56.95
2019-04-26T22:08:34.789Z,56.35
2019-04-26T22:11:03.628Z,60.13
2019-04-26T22:13:41.497Z,60.60
2019-04-26T22:16:33.397Z,58.04
2019-04-26T22:19:14.751Z,56.51
2019-04-26T22:22:04.234Z,57.35
2019-04-26T22:24:34.698Z,68.48
2019-04-26T22:27:03.815Z,60.87
2019-04-26T22:29:33.334Z,56.67
2019-04-26T22:32:03.502Z,68.57
2019-04-26T22:34:31.778Z,56.91
2019-04-26T22:37:01.842Z,72.23
2019-04-26T22:39:34.525Z,74.38
2019-04-26T22:42:02.717Z,58.20
2019-04-26T22:44:35.194Z,74.35
2019-04-26T22:47:11.268Z,66.04
2019-04-26T22:49:41.675Z,63.25
2019-04-26T22:52:11.155Z,56.70
2019-04-26T22:54:44.696Z,56.11
2019-04-26T22:57:13.116Z,55.68
2019-04-26T22:59:43.301Z,73.16
2019-04-26T23:02:13.710Z,67.38
2019-04-26T23:04:42.064Z,61.26
2019-04-26T23:07:10.873Z,73.62
2019-04-26T23:09:39.090Z,63.78
2019-04-26T23:12:29.446Z,59.43
2019-04-26T23:15:33.229Z,75.12
2019-04-26T23:18:10.438Z,59.21
2019-04-26T23:20:45.236Z,57.64
2019-04-26T23:23:13.535Z,56.33
2019-04-26T23:25:43.392Z,55.72
2019-04-26T23:28:11.675Z,55.80
2019-04-26T23:30:39.956Z,55.55
2019-04-26T23:33:08.102Z,60.64
2019-04-26T23:35:43.352Z,57.08
2019-04-26T23:38:06.566Z,55.40
2019-04-26T23:40:34.760Z,55.42
2019-04-26T23:43:02.987Z,55.06
2019-04-26T23:45:33.159Z,54.93
2019-04-26T23:48:01.090Z,55.39
2019-04-26T23:50:30.422Z,55.03
2019-04-26T23:52:58.646Z,57.17
2019-04-26T23:55:26.907Z,60.23
2019-04-26T23:57:55.082Z,56.63
